createdAt,value
2018-07-03T00:00:22.546Z,19.50
2018-07-03T00:04:16.455Z,19.30
2018-07-03T00:08:10.546Z,19.20
2018-07-03T00:12:04.451Z,19.00
2018-07-03T00:15:58.477Z,18.90
2018-07-03T00:19:52.733Z,18.70
2018-07-03T00:23:46.727Z,18.70
2018-07-03T00:27:40.713Z,18.70
2018-07-03T00:31:34.679Z,18.50
2018-07-03T00:35:28.873Z,18.50
2018-07-03T00:39:22.798Z,18.30
2018-07-03T00:43:16.963Z,18.30
2018-07-03T00:47:11.065Z,18.30
2018-07-03T00:51:05.007Z,18.20
2018-07-03T00:54:59.056Z,18.10
2018-07-03T00:58:53.868Z,17.90
2018-07-03T01:02:48.153Z,17.80
2018-07-03T01:06:41.649Z,17.70
2018-07-03T01:10:35.679Z,17.70
2018-07-03T01:14:30.871Z,17.60
2018-07-03T01:22:18.511Z,17.60
2018-07-03T01:26:12.458Z,17.50
2018-07-03T01:30:06.515Z,17.50
2018-07-03T01:34:00.578Z,17.30
2018-07-03T01:37:54.615Z,17.30
2018-07-03T01:41:48.768Z,17.30
2018-07-03T01:45:42.741Z,17.40
2018-07-03T01:49:36.782Z,17.40
2018-07-03T01:53:31.265Z,17.30
2018-07-03T01:57:25.342Z,17.10
2018-07-03T02:01:19.284Z,17.00
2018-07-03T02:05:13.287Z,17.00
2018-07-03T02:09:10.593Z,17.20
2018-07-03T02:13:04.543Z,17.10
2018-07-03T02:16:58.423Z,17.10
2018-07-03T02:20:52.454Z,17.20
2018-07-03T02:24:46.482Z,17.10
2018-07-03T02:28:40.406Z,17.00
2018-07-03T02:32:34.459Z,16.90
2018-07-03T02:36:28.945Z,16.80
2018-07-03T02:40:22.911Z,16.80
2018-07-03T02:44:17.006Z,16.80
2018-07-03T02:48:11.065Z,16.80
2018-07-03T02:52:05.180Z,16.80
2018-07-03T02:56:00.222Z,16.70
2018-07-03T02:59:54.735Z,16.70
2018-07-03T03:03:48.851Z,16.60
2018-07-03T03:07:42.877Z,16.60
2018-07-03T03:15:30.737Z,16.60
2018-07-03T03:19:24.641Z,16.50
2018-07-03T03:23:18.658Z,16.40
2018-07-03T03:27:12.599Z,16.30
2018-07-03T03:31:06.911Z,16.30
2018-07-03T03:35:01.065Z,16.30
2018-07-03T03:38:55.147Z,16.30
2018-07-03T03:42:49.474Z,16.30
2018-07-03T03:46:43.568Z,16.30
2018-07-03T03:50:37.742Z,16.40
2018-07-03T03:54:31.711Z,16.30
2018-07-03T04:02:19.629Z,16.30
2018-07-03T04:06:13.743Z,16.30
2018-07-03T04:10:07.703Z,16.30
2018-07-03T04:14:01.664Z,16.20
2018-07-03T04:17:55.649Z,16.20
2018-07-03T04:21:49.543Z,16.20
2018-07-03T04:25:43.624Z,16.30
2018-07-03T04:29:37.624Z,16.30
2018-07-03T04:33:31.719Z,16.40
2018-07-03T04:37:25.823Z,16.40
2018-07-03T04:41:21.009Z,16.50
2018-07-03T04:45:17.045Z,16.90
2018-07-03T04:49:11.025Z,19.70
2018-07-03T04:53:05.154Z,22.80
2018-07-03T04:56:59.343Z,25.20
2018-07-03T05:00:53.288Z,26.70
2018-07-03T05:04:47.302Z,27.90
2018-07-03T05:08:41.274Z,28.40
2018-07-03T05:12:35.293Z,28.50
2018-07-03T05:16:29.733Z,28.00
2018-07-03T05:20:23.757Z,26.60
2018-07-03T05:24:17.912Z,24.40
2018-07-03T05:28:12.067Z,22.70
2018-07-03T05:32:06.475Z,21.60
2018-07-03T05:36:00.737Z,20.90
2018-07-03T05:39:54.757Z,20.50
2018-07-03T05:43:49.107Z,20.40
2018-07-03T05:47:43.238Z,20.20
2018-07-03T05:51:37.292Z,20.10
2018-07-03T05:55:31.302Z,20.00
2018-07-03T05:59:25.365Z,20.00
2018-07-03T06:03:19.368Z,20.00
2018-07-03T06:07:13.422Z,19.90
2018-07-03T06:11:08.344Z,20.00
2018-07-03T06:15:02.814Z,20.00
2018-07-03T06:18:57.383Z,20.00
2018-07-03T06:22:51.516Z,20.10
2018-07-03T06:26:45.488Z,20.10
2018-07-03T06:30:39.776Z,20.10
2018-07-03T06:34:34.789Z,20.10
2018-07-03T06:38:29.145Z,20.20
2018-07-03T06:42:23.082Z,20.30
2018-07-03T06:46:17.598Z,20.40
2018-07-03T06:50:11.535Z,20.50
2018-07-03T06:54:05.623Z,20.60
2018-07-03T06:58:00.573Z,20.70
2018-07-03T07:01:54.819Z,20.80
2018-07-03T07:05:48.446Z,20.90
2018-07-03T07:09:42.603Z,21.10
2018-07-03T07:13:36.819Z,21.20
2018-07-03T07:17:31.319Z,21.30
2018-07-03T07:21:25.296Z,21.40
2018-07-03T07:25:19.252Z,21.50
2018-07-03T07:29:13.458Z,21.50
2018-07-03T07:33:07.429Z,21.60
2018-07-03T07:37:01.567Z,21.70
2018-07-03T07:40:55.621Z,21.80
2018-07-03T07:48:43.542Z,22.00
2018-07-03T07:52:38.203Z,22.10
2018-07-03T07:56:33.224Z,22.10
2018-07-03T08:00:29.812Z,22.20
2018-07-03T08:04:28.573Z,22.30
2018-07-03T08:08:23.132Z,22.50
2018-07-03T08:12:17.416Z,22.70
2018-07-03T08:16:11.913Z,22.80
2018-07-03T08:20:06.098Z,22.80
2018-07-03T08:24:01.024Z,22.90
2018-07-03T08:27:55.111Z,23.00
2018-07-03T08:31:49.154Z,23.10
2018-07-03T08:35:43.385Z,23.10
2018-07-03T08:39:37.607Z,23.20
2018-07-03T08:43:31.796Z,23.30
2018-07-03T08:47:25.984Z,23.40
2018-07-03T08:51:23.477Z,23.50
2018-07-03T08:55:17.679Z,23.60
2018-07-03T08:59:11.778Z,23.70
2018-07-03T09:03:05.832Z,23.80
2018-07-03T09:07:00.492Z,23.80
2018-07-03T09:10:54.759Z,23.90
2018-07-03T09:14:48.870Z,24.00
2018-07-03T09:18:44.640Z,24.10
2018-07-03T09:22:38.668Z,24.10
2018-07-03T09:26:35.734Z,24.10
2018-07-03T09:30:29.911Z,24.10
2018-07-03T09:34:24.001Z,24.20
2018-07-03T09:38:18.564Z,24.40
2018-07-03T09:42:12.935Z,24.60
2018-07-03T09:46:07.122Z,24.70
2018-07-03T09:50:02.385Z,24.70
2018-07-03T09:53:57.357Z,24.80
2018-07-03T09:57:51.508Z,24.80
2018-07-03T10:01:45.470Z,24.80
2018-07-03T10:05:39.665Z,24.80
2018-07-03T10:09:34.322Z,24.80
2018-07-03T10:13:28.928Z,24.80
2018-07-03T10:17:23.245Z,24.80
2018-07-03T10:21:17.532Z,24.90
2018-07-03T10:25:12.074Z,25.10
2018-07-03T10:29:06.691Z,25.10
2018-07-03T10:33:00.848Z,25.20
2018-07-03T10:36:55.249Z,25.30
2018-07-03T10:40:49.728Z,25.30
2018-07-03T10:44:43.953Z,25.40
2018-07-03T10:48:38.857Z,25.40
2018-07-03T10:52:33.613Z,25.50
2018-07-03T10:56:29.228Z,25.60
2018-07-03T11:00:23.505Z,25.60
2018-07-03T11:04:18.120Z,25.70
2018-07-03T11:08:12.978Z,25.70
2018-07-03T11:12:09.145Z,25.80
2018-07-03T11:16:03.364Z,25.80
2018-07-03T11:19:57.733Z,25.80
2018-07-03T11:23:51.136Z,25.90
2018-07-03T11:27:45.449Z,25.90
2018-07-03T11:31:39.554Z,26.10
2018-07-03T11:35:33.600Z,26.10
2018-07-03T11:39:29.480Z,26.10
2018-07-03T11:43:24.161Z,26.10
2018-07-03T11:47:19.039Z,26.20
2018-07-03T11:51:13.227Z,26.40
2018-07-03T11:55:07.568Z,26.40
2018-07-03T11:59:01.902Z,26.50
2018-07-03T12:02:56.253Z,26.50
2018-07-03T12:06:50.377Z,26.60
2018-07-03T12:10:44.392Z,26.60
2018-07-03T12:14:38.508Z,26.70
2018-07-03T12:18:37.953Z,26.80
2018-07-03T12:22:32.395Z,26.90
2018-07-03T12:26:27.544Z,27.00
2018-07-03T12:30:23.760Z,27.00
2018-07-03T12:34:18.530Z,27.10
2018-07-03T12:38:12.910Z,27.10
2018-07-03T12:42:07.829Z,27.20
2018-07-03T12:46:01.930Z,27.40
2018-07-03T12:49:56.335Z,27.40
2018-07-03T12:53:50.623Z,27.50
2018-07-03T12:57:44.623Z,27.50
2018-07-03T13:01:38.825Z,27.40
2018-07-03T13:05:32.524Z,27.40
2018-07-03T13:09:26.691Z,27.50
2018-07-03T13:13:22.128Z,27.50
2018-07-03T13:17:16.813Z,27.50
2018-07-03T13:21:11.653Z,27.50
2018-07-03T13:25:07.933Z,27.60
2018-07-03T13:29:02.171Z,27.60
2018-07-03T13:32:57.498Z,27.60
2018-07-03T13:36:51.533Z,27.80
2018-07-03T13:40:45.557Z,28.00
2018-07-03T13:44:39.806Z,28.00
2018-07-03T13:52:28.447Z,28.20
2018-07-03T13:56:23.767Z,28.30
2018-07-03T14:00:17.851Z,28.40
2018-07-03T14:04:12.268Z,28.40
2018-07-03T14:08:06.163Z,28.40
2018-07-03T14:12:00.902Z,28.50
2018-07-03T14:15:55.260Z,28.60
2018-07-03T14:19:51.208Z,28.60
2018-07-03T14:23:45.750Z,28.50
2018-07-03T14:27:39.780Z,28.50
2018-07-03T14:31:33.745Z,28.30
2018-07-03T14:35:29.992Z,28.20
2018-07-03T14:39:23.966Z,28.30
2018-07-03T14:43:17.935Z,28.40
2018-07-03T14:47:12.155Z,28.40
2018-07-03T14:51:06.418Z,28.50
2018-07-03T14:55:01.422Z,28.60
2018-07-03T14:58:55.450Z,28.60
2018-07-03T15:02:49.516Z,28.70
2018-07-03T15:06:43.002Z,28.70
2018-07-03T15:14:31.605Z,28.80
2018-07-03T15:18:29.789Z,28.80
2018-07-03T15:22:23.917Z,28.90
2018-07-03T15:26:18.892Z,29.00
2018-07-03T15:30:16.544Z,29.10
2018-07-03T15:34:11.303Z,29.20
2018-07-03T15:38:06.690Z,29.30
2018-07-03T15:42:01.591Z,29.30
2018-07-03T15:45:55.558Z,29.10
2018-07-03T15:49:49.490Z,29.00
2018-07-03T15:53:44.822Z,29.00
2018-07-03T15:57:40.701Z,29.00
2018-07-03T16:01:34.868Z,29.00
2018-07-03T16:09:23.134Z,28.90
2018-07-03T16:13:17.103Z,28.80
2018-07-03T16:17:11.309Z,29.00
2018-07-03T16:21:05.765Z,29.10
2018-07-03T16:25:00.203Z,29.00
2018-07-03T16:28:55.295Z,29.00
2018-07-03T16:32:49.787Z,29.10
2018-07-03T16:36:44.300Z,29.10
2018-07-03T16:40:38.700Z,29.10
2018-07-03T16:44:33.361Z,29.10
2018-07-03T16:48:30.187Z,29.10
2018-07-03T16:52:24.234Z,29.20
2018-07-03T16:56:18.408Z,29.20
2018-07-03T17:00:17.230Z,29.10
2018-07-03T17:04:11.269Z,29.00
2018-07-03T17:08:04.877Z,28.80
2018-07-03T17:12:00.870Z,28.70
2018-07-03T17:15:55.722Z,28.70
2018-07-03T17:19:49.852Z,28.70
2018-07-03T17:23:44.717Z,28.80
2018-07-03T17:27:39.270Z,28.70
2018-07-03T17:31:33.941Z,28.70
2018-07-03T17:35:29.822Z,28.70
2018-07-03T17:39:34.235Z,28.70
2018-07-03T17:44:12.348Z,28.70
2018-07-03T17:48:07.490Z,28.60
2018-07-03T17:52:01.716Z,28.50
2018-07-03T17:55:56.114Z,28.40
2018-07-03T17:59:50.020Z,28.30
2018-07-03T18:03:44.104Z,28.30
2018-07-03T18:07:38.184Z,28.20
2018-07-03T18:11:31.670Z,28.00
2018-07-03T18:15:25.711Z,28.00
2018-07-03T18:19:25.076Z,27.80
2018-07-03T18:23:19.018Z,27.70
2018-07-03T18:27:13.405Z,27.70
2018-07-03T18:31:07.766Z,27.70
2018-07-03T18:35:02.064Z,27.60
2018-07-03T18:38:56.293Z,27.60
2018-07-03T18:42:50.283Z,27.50
2018-07-03T18:46:44.472Z,27.40
2018-07-03T18:50:38.486Z,27.20
2018-07-03T18:54:32.413Z,27.10
2018-07-03T18:58:26.478Z,26.90
2018-07-03T19:02:20.769Z,26.90
2018-07-03T19:06:15.008Z,26.90
2018-07-03T19:10:09.353Z,26.80
2018-07-03T19:14:02.836Z,26.70
2018-07-03T19:17:58.914Z,26.50
2018-07-03T19:21:53.009Z,26.40
2018-07-03T19:25:47.070Z,26.40
2018-07-03T19:29:41.017Z,26.30
2018-07-03T19:33:34.916Z,26.30
2018-07-03T19:37:28.915Z,26.10
2018-07-03T19:41:22.884Z,26.00
2018-07-03T19:45:16.819Z,25.80
2018-07-03T19:49:10.829Z,25.70
2018-07-03T19:53:04.925Z,25.60
2018-07-03T19:56:58.989Z,25.60
2018-07-03T20:00:54.070Z,25.40
2018-07-03T20:04:48.059Z,25.30
2018-07-03T20:08:42.081Z,25.10
2018-07-03T20:12:35.552Z,25.00
2018-07-03T20:16:29.443Z,24.90
2018-07-03T20:20:23.823Z,24.90
2018-07-03T20:24:17.862Z,24.70
2018-07-03T20:28:11.827Z,24.50
2018-07-03T20:32:05.689Z,24.20
2018-07-03T20:35:59.721Z,24.00
2018-07-03T20:39:54.596Z,23.90
2018-07-03T20:43:48.594Z,23.80
2018-07-03T20:47:42.555Z,23.70
2018-07-03T20:51:36.514Z,23.60
2018-07-03T20:55:30.443Z,23.60
2018-07-03T20:59:24.597Z,23.70
2018-07-03T21:03:18.538Z,23.80
2018-07-03T21:07:12.518Z,23.90
2018-07-03T21:11:06.180Z,23.90
2018-07-03T21:15:00.123Z,23.80
2018-07-03T21:18:54.083Z,23.80
2018-07-03T21:22:48.155Z,23.80
2018-07-03T21:30:35.831Z,23.70
2018-07-03T21:34:29.836Z,23.70
2018-07-03T21:38:23.947Z,23.50
2018-07-03T21:42:17.975Z,23.50
2018-07-03T21:46:12.051Z,23.40
2018-07-03T21:50:05.986Z,23.40
2018-07-03T21:54:00.074Z,23.20
2018-07-03T21:57:53.523Z,23.00
2018-07-03T22:01:47.555Z,23.00
2018-07-03T22:05:41.840Z,22.90
2018-07-03T22:09:35.818Z,22.70
2018-07-03T22:13:29.356Z,22.70
2018-07-03T22:17:23.396Z,22.60
2018-07-03T22:21:17.335Z,22.60
2018-07-03T22:25:11.226Z,22.50
2018-07-03T22:29:05.258Z,22.40
2018-07-03T22:33:00.090Z,22.40
2018-07-03T22:36:54.050Z,22.30
2018-07-03T22:40:47.997Z,22.20
2018-07-03T22:44:42.527Z,22.10
2018-07-03T22:48:36.439Z,22.10
2018-07-03T22:52:30.401Z,22.20
2018-07-03T22:56:24.403Z,22.20
2018-07-03T23:00:18.308Z,22.10
2018-07-03T23:04:12.297Z,22.10
2018-07-03T23:08:06.276Z,22.10
2018-07-03T23:11:59.789Z,22.00
2018-07-03T23:15:53.773Z,22.00
2018-07-03T23:19:48.338Z,22.00
2018-07-03T23:23:42.315Z,21.80
2018-07-03T23:27:36.243Z,21.80
2018-07-03T23:31:30.300Z,21.70
2018-07-03T23:35:24.179Z,21.60
2018-07-03T23:39:18.211Z,21.50
2018-07-03T23:43:12.230Z,21.50
2018-07-03T23:47:17.641Z,21.50
2018-07-03T23:51:22.770Z,21.40
2018-07-03T23:55:28.077Z,21.40
2018-07-03T23:59:33.399Z,21.40
